Time;durP1;ratioP1;P1;durP2;ratioP2;P2;SDS_P1;SDS_P2;PMS_P1;PMS_P2;Temp;Humidity;BMP_temperature;BMP_pressure;BME280_temperature;BME280_humidity;BME280_pressure;Samples;Min_cycle;Max_cycle;Signal;HPM_P1;HPM_P2
2022/04/28 00:01:37;;;;;;;4.55;2.05;;;;;;;9.77;69.33;103061.22;5110623;28;20040;-29
2022/04/28 00:04:05;;;;;;;3.95;1.83;;;;;;;9.74;69.55;103061.69;5110722;28;20100;-27
2022/04/28 00:06:32;;;;;;;4.32;1.70;;;;;;;9.73;69.56;103065.56;5110770;28;20408;-28
2022/04/28 00:09:00;;;;;;;3.47;1.80;;;;;;;9.74;69.74;103063.63;5110114;28;20044;-30
2022/04/28 00:11:28;;;;;;;3.00;1.58;;;;;;;9.72;69.86;103063.00;5110486;28;20339;-29
2022/04/28 00:13:58;;;;;;;4.85;1.50;;;;;;;9.71;69.97;103062.16;5109636;28;20485;-29
2022/04/28 00:16:26;;;;;;;6.47;2.13;;;;;;;9.71;70.06;103061.31;5110444;28;20055;-28
2022/04/28 00:18:55;;;;;;;4.88;1.88;;;;;;;9.69;70.24;103067.13;5111995;28;20058;-27
2022/04/28 00:21:22;;;;;;;4.93;1.65;;;;;;;9.67;70.46;103066.50;5111096;28;20040;-32
2022/04/28 00:23:50;;;;;;;6.75;2.25;;;;;;;9.66;70.63;103068.44;5108270;28;20571;-27
2022/04/28 00:26:18;;;;;;;3.83;1.67;;;;;;;9.64;70.79;103061.41;5112023;28;20479;-28
2022/04/28 00:28:46;;;;;;;5.53;1.60;;;;;;;9.62;70.99;103066.38;5110373;28;20048;-27
2022/04/28 00:31:15;;;;;;;4.47;2.03;;;;;;;9.60;71.31;103062.97;5111914;28;20044;-29
2022/04/28 00:33:43;;;;;;;6.18;2.25;;;;;;;9.56;71.45;103057.03;5110119;28;20122;-28
2022/04/28 00:36:11;;;;;;;4.65;1.90;;;;;;;9.54;71.78;103058.38;5111183;28;20048;-28
2022/04/28 00:38:39;;;;;;;6.07;2.20;;;;;;;9.52;71.84;103063.31;5093705;28;20400;-29
2022/04/28 00:41:07;;;;;;;3.47;1.60;;;;;;;9.51;72.08;103061.63;5111460;28;20058;-29
2022/04/28 00:43:49;;;;;;;3.20;1.75;;;;;;;9.51;72.19;103061.63;5092365;28;20043;-27
2022/04/28 00:46:18;;;;;;;;;;;;;;;9.42;72.87;103068.63;5112368;28;20047;-28
2022/04/28 00:51:33;;;;;;;6.95;1.73;;;;;;;9.39;72.48;103066.31;5086153;28;20152;-30
2022/04/28 00:54:02;;;;;;;6.68;2.63;;;;;;;9.38;72.54;103061.84;5093005;28;20058;-28
2022/04/28 00:56:31;;;;;;;3.45;1.88;;;;;;;9.36;72.84;103064.00;5110531;28;20055;-29
2022/04/28 00:59:02;;;;;;;4.20;2.03;;;;;;;9.35;72.67;103054.81;5093091;28;20055;-27
2022/04/28 01:01:32;;;;;;;4.70;1.90;;;;;;;9.33;73.07;103056.97;5093043;28;20408;-26
2022/04/28 01:04:01;;;;;;;3.85;1.83;;;;;;;9.32;72.68;103061.69;5092049;28;20451;-26
2022/04/28 01:06:29;;;;;;;4.88;2.33;;;;;;;9.31;72.34;103064.72;5093064;28;20081;-27
2022/04/28 01:08:58;;;;;;;3.90;1.92;;;;;;;9.28;72.56;103057.69;5092795;28;20117;-26
2022/04/28 01:11:26;;;;;;;5.15;2.47;;;;;;;9.27;72.48;103063.47;5092000;28;20451;-26
2022/04/28 01:14:01;;;;;;;4.85;2.20;;;;;;;9.24;72.75;103064.81;5092899;28;20421;-27
2022/04/28 01:16:34;;;;;;;4.45;2.30;;;;;;;9.22;72.64;103058.63;5092716;28;20054;-27
2022/04/28 01:19:02;;;;;;;5.30;2.15;;;;;;;9.20;72.58;103055.22;5110219;28;20043;-31
2022/04/28 01:21:31;;;;;;;3.38;1.70;;;;;;;9.22;72.68;103055.81;5092872;28;20053;-27
2022/04/28 01:24:08;;;;;;;4.93;2.08;;;;;;;9.23;72.96;103062.25;5091969;28;20104;-29
2022/04/28 01:26:36;;;;;;;3.85;1.85;;;;;;;9.22;72.87;103064.19;5092543;28;20039;-29
2022/04/28 01:29:04;;;;;;;4.85;2.03;;;;;;;9.23;73.04;103070.59;5111015;28;20031;-27
2022/04/28 01:31:32;;;;;;;3.90;1.75;;;;;;;9.23;73.23;103065.88;5080593;28;20283;-26
2022/04/28 01:34:03;;;;;;;2.80;1.50;;;;;;;9.23;73.37;103060.31;5089414;28;20126;-29
2022/04/28 01:36:34;;;;;;;4.60;2.00;;;;;;;9.24;73.15;103059.22;5092665;28;20179;-26
2022/04/28 01:39:03;;;;;;;3.88;1.98;;;;;;;9.24;73.27;103059.22;5091847;28;20070;-27
2022/04/28 01:41:31;;;;;;;3.33;1.90;;;;;;;9.25;73.38;103055.34;5092516;28;20460;-28
2022/04/28 01:43:59;;;;;;;4.07;1.98;;;;;;;9.26;73.43;103053.44;5110679;28;20100;-26
2022/04/28 01:46:27;;;;;;;3.00;1.70;;;;;;;9.25;73.17;103055.34;5109370;28;20044;-28
2022/04/28 01:48:58;;;;;;;3.88;2.20;;;;;;;9.26;73.53;103059.00;5092651;28;20059;-26
2022/04/28 01:55:00;;;;;;;5.10;1.92;;;;;;;9.21;73.40;103059.69;5088745;28;20047;-26
2022/04/28 01:57:51;;;;;;;5.53;2.30;;;;;;;9.20;73.22;103065.50;5092152;28;20096;-27
2022/04/28 02:00:31;;;;;;;6.20;1.98;;;;;;;9.20;73.00;103062.72;5082045;28;20043;-26
2022/04/28 02:03:06;;;;;;;4.70;2.03;;;;;;;9.21;72.84;103073.63;5095475;28;20051;-28
2022/04/28 02:05:35;;;;;;;2.92;1.63;;;;;;;9.22;72.89;103066.13;5096117;28;20073;-27
2022/04/28 02:08:08;;;;;;;4.75;2.00;;;;;;;9.24;72.88;103072.31;5095829;28;20781;-27
2022/04/28 02:10:35;;;;;;;5.85;2.33;;;;;;;9.25;72.97;103071.22;5096386;28;20078;-26
2022/04/28 02:13:06;;;;;;;4.90;2.53;;;;;;;9.23;73.42;103068.66;5114776;28;20115;-26
2022/04/28 02:15:53;;;;;;;5.22;2.05;;;;;;;9.21;73.91;103076.41;5104240;28;20523;-26
2022/04/28 02:18:41;;;;;;;4.22;2.22;;;;;;;9.20;73.96;103071.06;5103469;28;20059;-27
2022/04/28 02:21:09;;;;;;;5.40;2.83;;;;;;;9.20;74.20;103077.50;5095291;28;20328;-26
2022/04/28 02:23:38;;;;;;;6.32;2.30;;;;;;;9.21;74.33;103075.56;5095871;28;20821;-27
2022/04/28 02:26:06;;;;;;;6.25;2.47;;;;;;;9.20;74.19;103068.28;5095726;28;20317;-26
2022/04/28 02:28:34;;;;;;;4.25;2.13;;;;;;;9.19;74.51;103073.00;5095339;28;20405;-28
2022/04/28 02:31:02;;;;;;;4.88;2.10;;;;;;;9.20;74.71;103068.28;5095836;28;20141;-28
2022/04/28 02:33:30;;;;;;;6.03;2.47;;;;;;;9.20;74.62;103073.84;5095959;28;20152;-28
2022/04/28 02:36:05;;;;;;;4.55;1.80;;;;;;;9.17;74.88;103069.63;5095071;28;20051;-27
2022/04/28 02:38:37;;;;;;;5.55;2.03;;;;;;;9.18;74.14;103059.34;5095796;28;20048;-27
2022/04/28 02:41:09;;;;;;;4.95;1.92;;;;;;;9.18;73.88;103059.34;5113635;28;20142;-29
2022/04/28 02:43:37;;;;;;;3.95;1.50;;;;;;;9.18;73.69;103062.13;5095085;28;20435;-27
2022/04/28 02:46:13;;;;;;;4.35;2.10;;;;;;;9.18;73.92;103071.34;5113814;28;20561;-26
2022/04/28 02:48:55;;;;;;;5.25;1.90;;;;;;;9.17;73.67;103066.00;5094960;28;20097;-28
2022/04/28 02:51:23;;;;;;;5.18;1.90;;;;;;;9.19;73.67;103072.19;5095354;28;20040;-26
2022/04/28 02:53:53;;;;;;;3.53;1.70;;;;;;;9.20;73.69;103062.72;5095833;28;20054;-28
2022/04/28 02:56:21;;;;;;;4.85;1.83;;;;;;;9.21;73.37;103070.00;5094746;28;20112;-28
2022/04/28 02:58:50;;;;;;;5.10;1.52;;;;;;;9.20;73.43;103069.13;5113828;28;20422;-27
2022/04/28 03:01:18;;;;;;;3.80;1.60;;;;;;;9.20;73.32;103071.94;5095127;28;20051;-26
2022/04/28 03:03:46;;;;;;;4.75;1.83;;;;;;;9.20;73.09;103077.50;5094246;28;20095;-26
2022/04/28 03:11:48;;;;;;;3.15;1.30;;;;;;;9.16;72.88;103076.28;5094212;28;20132;-26
2022/04/28 03:14:18;;;;;;;2.38;1.20;;;;;;;9.19;72.87;103070.22;5094624;28;20134;-25
2022/04/28 03:16:46;;;;;;;4.22;1.67;;;;;;;9.20;72.77;103071.94;5112537;28;20126;-26
2022/04/28 03:19:15;;;;;;;6.20;1.80;;;;;;;9.21;72.38;103070.00;5111064;28;20059;-26
2022/04/28 03:21:45;;;;;;;2.33;1.20;;;;;;;9.21;72.70;103064.41;5113128;28;20046;-26
2022/04/28 03:24:14;;;;;;;3.35;1.38;;;;;;;9.21;72.42;103068.06;5092684;28;20141;-26
2022/04/28 03:26:42;;;;;;;4.63;1.60;;;;;;;9.21;72.74;103058.84;5086151;28;20098;-26
2022/04/28 03:29:14;;;;;;;3.47;1.33;;;;;;;9.22;72.54;103068.91;5094632;28;20047;-26
2022/04/28 03:31:41;;;;;;;2.90;1.20;;;;;;;9.23;72.93;103068.66;5093927;28;20051;-28
2022/04/28 03:34:42;;;;;;;3.42;1.25;;;;;;;9.22;72.79;103061.41;5077929;28;20412;-26
2022/04/28 03:37:09;;;;;;;4.20;1.30;;;;;;;9.24;72.94;103066.75;5112953;28;20075;-26
2022/04/28 03:39:42;;;;;;;7.40;1.80;;;;;;;9.24;73.23;103069.53;5092761;28;20475;-26
2022/04/28 03:42:09;;;;;;;7.00;2.10;;;;;;;9.23;73.16;103068.66;5092253;28;20047;-27
2022/04/28 03:44:37;;;;;;;6.05;1.85;;;;;;;9.23;73.60;103070.59;5093556;28;20043;-26
2022/04/28 03:47:07;;;;;;;3.45;1.40;;;;;;;9.23;73.67;103074.25;5111835;28;20047;-26
2022/04/28 03:49:35;;;;;;;4.85;1.75;;;;;;;9.24;73.87;103072.31;5092705;28;20075;-27
2022/04/28 03:52:06;;;;;;;5.47;1.85;;;;;;;9.24;74.50;103070.38;5091909;28;20054;-29
2022/04/28 03:54:34;;;;;;;3.13;1.40;;;;;;;9.22;75.06;103072.53;5093158;28;20135;-26
2022/04/28 03:57:06;;;;;;;5.90;2.00;;;;;;;9.23;75.36;103071.47;5093130;28;20050;-28
2022/04/28 03:59:35;;;;;;;6.53;1.88;;;;;;;9.22;75.66;103071.69;5092125;28;20507;-28
2022/04/28 04:02:24;;;;;;;5.75;1.83;;;;;;;9.20;76.24;103080.28;5100500;28;20085;-29
2022/04/28 04:04:52;;;;;;;6.03;1.58;;;;;;;9.19;76.30;103070.22;5093893;28;20451;-27
2022/04/28 04:07:20;;;;;;;4.75;1.70;;;;;;;9.19;76.88;103073.00;5093152;28;20138;-26
2022/04/28 04:09:53;;;;;;;6.10;1.77;;;;;;;9.18;76.84;103076.91;5112284;28;20417;-26
2022/04/28 04:12:35;;;;;;;4.20;1.40;;;;;;;9.17;77.02;103080.78;5093829;28;20086;-28
2022/04/28 04:15:12;;;;;;;6.95;1.50;;;;;;;9.16;77.28;103081.88;5112164;28;20044;-30
2022/04/28 04:17:59;;;;;;;7.72;1.73;;;;;;;9.17;77.14;103077.16;5112482;28;20039;-26
2022/04/28 04:20:35;;;;;;;6.53;1.80;;;;;;;9.16;77.33;103079.09;5111203;28;20039;-30
2022/04/28 04:23:05;;;;;;;4.38;1.83;;;;;;;9.17;77.38;103083.56;5111881;28;20066;-27
2022/04/28 04:25:33;;;;;;;4.75;1.67;;;;;;;9.18;77.40;103084.41;5111189;28;20138;-27
2022/04/28 04:28:07;;;;;;;;;;;;;;;9.12;77.39;103083.41;5093385;28;20485;-26
2022/04/28 04:33:27;;;;;;;5.25;1.70;;;;;;;9.12;77.66;103085.34;5093230;28;20043;-27
2022/04/28 04:35:55;;;;;;;6.57;1.60;;;;;;;9.14;77.26;103089.59;5111022;28;20032;-26
2022/04/28 04:38:23;;;;;;;8.07;1.67;;;;;;;9.15;77.29;103084.88;5093221;28;20043;-27
2022/04/28 04:40:51;;;;;;;4.47;1.70;;;;;;;9.14;76.96;103081.25;5093190;28;20075;-29
2022/04/28 04:43:20;;;;;;;4.07;1.45;;;;;;;9.15;77.19;103091.31;5092689;28;20036;-26
2022/04/28 04:45:47;;;;;;;6.60;1.88;;;;;;;9.15;77.16;103088.53;5111649;28;20065;-27
2022/04/28 04:48:35;;;;;;;3.83;1.73;;;;;;;9.13;76.99;103090.69;5110627;28;20206;-26
2022/04/28 04:51:13;;;;;;;4.25;1.40;;;;;;;9.14;76.73;103089.59;5093170;28;20051;-27
2022/04/28 04:53:50;;;;;;;4.53;1.42;;;;;;;9.15;76.54;103096.03;5092995;28;20055;-30
2022/04/28 04:56:18;;;;;;;5.78;1.75;;;;;;;9.17;76.02;103096.66;5092277;28;20043;-25
2022/04/28 04:58:47;;;;;;;5.68;1.55;;;;;;;9.19;75.86;103103.66;5093141;28;20562;-26
2022/04/28 05:01:15;;;;;;;6.30;1.67;;;;;;;9.20;75.51;103105.34;5092686;28;20330;-26
2022/04/28 05:04:01;;;;;;;7.15;1.60;;;;;;;9.20;75.26;103108.13;5110486;28;20424;-26
2022/04/28 05:06:49;;;;;;;4.78;1.30;;;;;;;9.20;74.99;103119.28;5087111;28;20073;-28
2022/04/28 05:09:23;;;;;;;7.45;2.22;;;;;;;9.24;75.14;103128.03;5092021;28;20468;-26
2022/04/28 05:11:51;;;;;;;4.03;1.30;;;;;;;9.25;74.78;103127.78;5092692;28;20055;-27
2022/04/28 05:14:33;;;;;;;5.22;1.77;;;;;;;9.27;74.48;103128.41;5111106;28;20088;-27
2022/04/28 05:17:02;;;;;;;6.15;1.77;;;;;;;9.26;73.95;103125.84;5092112;28;20055;-26
2022/04/28 05:19:49;;;;;;;5.00;1.70;;;;;;;9.24;73.64;103120.53;5111283;28;20534;-26
2022/04/28 05:22:37;;;;;;;3.08;1.10;;;;;;;9.26;73.46;103132.28;5075108;28;20051;-26
2022/04/28 05:25:23;;;;;;;4.65;1.23;;;;;;;9.25;73.00;103141.72;5110559;28;20078;-27
2022/04/28 05:28:09;;;;;;;3.97;1.70;;;;;;;9.27;72.71;103142.34;5111112;28;20136;-26
2022/04/28 05:30:57;;;;;;;3.10;1.10;;;;;;;9.30;72.80;103146.59;5104097;28;20120;-26
2022/04/28 05:33:47;;;;;;;5.60;1.45;;;;;;;9.31;72.37;103142.72;5108564;28;20062;-28
2022/04/28 05:36:34;;;;;;;4.55;1.55;;;;;;;9.35;72.58;103143.13;5110999;28;20054;-29
2022/04/28 05:39:02;;;;;;;6.70;1.58;;;;;;;9.38;72.25;103151.00;5109944;28;20055;-26
2022/04/28 05:41:30;;;;;;;5.78;1.77;;;;;;;9.40;72.17;103151.59;5110428;28;20127;-27
2022/04/28 05:46:44;;;;;;;4.07;1.58;;;;;;;9.40;72.37;103166.38;5110880;28;20047;-27
2022/04/28 05:49:12;;;;;;;4.80;1.38;;;;;;;9.43;72.16;103171.47;5092072;28;20043;-27
2022/04/28 05:51:41;;;;;;;3.75;1.30;;;;;;;9.48;72.02;103184.72;5091562;28;20531;-27
2022/04/28 05:54:11;;;;;;;4.05;1.58;;;;;;;9.55;71.59;103182.72;5091906;28;20048;-26
2022/04/28 05:56:39;;;;;;;2.97;1.42;;;;;;;9.58;71.28;103185.03;5090429;28;20393;-26
2022/04/28 05:59:11;;;;;;;5.60;1.35;;;;;;;9.60;70.88;103186.47;5086478;28;20044;-30
2022/04/28 06:01:42;;;;;;;4.65;1.38;;;;;;;9.60;70.85;103177.25;5109710;28;20051;-28
2022/04/28 06:04:14;;;;;;;5.13;1.40;;;;;;;9.62;70.62;103183.44;5091273;28;20054;-28
2022/04/28 06:06:45;;;;;;;4.88;2.10;;;;;;;9.65;70.46;103185.75;5090164;28;20051;-27
2022/04/28 06:09:21;;;;;;;4.68;1.70;;;;;;;9.61;70.29;103182.59;5091394;28;20062;-27
2022/04/28 06:11:50;;;;;;;5.65;2.03;;;;;;;9.60;70.23;103189.25;5090994;28;20572;-27
2022/04/28 06:14:18;;;;;;;6.50;1.95;;;;;;;9.59;70.05;103192.31;5089840;28;20051;-28
2022/04/28 06:16:46;;;;;;;2.40;1.08;;;;;;;9.60;69.91;103186.47;5109178;28;20063;-26
2022/04/28 06:19:23;;;;;;;4.78;1.55;;;;;;;9.67;69.91;103200.31;5090313;28;20428;-28
2022/04/28 06:22:06;;;;;;;3.63;1.58;;;;;;;9.71;69.58;103195.13;5109227;28;20043;-27
2022/04/28 06:24:43;;;;;;;4.57;1.63;;;;;;;9.78;69.77;103193.09;5090401;28;20070;-27
2022/04/28 06:27:14;;;;;;;3.65;1.33;;;;;;;9.87;69.55;103203.66;5087268;28;20128;-27
2022/04/28 06:29:48;;;;;;;5.45;2.13;;;;;;;9.93;69.38;103213.88;5090040;28;20572;-26
2022/04/28 06:32:17;;;;;;;5.70;1.90;;;;;;;10.00;69.11;103216.56;5090863;28;20052;-27
2022/04/28 06:35:07;;;;;;;4.65;1.60;;;;;;;9.98;68.42;103222.41;5089896;28;20058;-27
2022/04/28 06:37:35;;;;;;;3.40;1.20;;;;;;;9.97;68.41;103226.28;5109133;28;20705;-27
2022/04/28 06:40:05;;;;;;;5.80;1.70;;;;;;;9.97;68.33;103226.28;5090221;28;20055;-28
2022/04/28 06:42:33;;;;;;;8.10;2.50;;;;;;;9.97;67.87;103226.28;5088944;28;20071;-29
2022/04/28 06:45:27;;;;;;;5.45;1.80;;;;;;;9.94;68.08;103221.16;5103891;28;20055;-28
2022/04/28 06:47:55;;;;;;;8.52;2.33;;;;;;;9.93;67.96;103213.88;5109944;28;20062;-27
2022/04/28 06:50:39;;;;;;;7.13;2.35;;;;;;;9.90;67.62;103224.66;5113877;28;20055;-28
2022/04/28 06:53:26;;;;;;;8.40;2.03;;;;;;;9.87;67.47;103220.41;5113725;28;20440;-29
2022/04/28 06:56:06;;;;;;;4.85;1.80;;;;;;;9.85;67.88;103219.78;5094180;28;20059;-27
2022/04/28 06:58:49;;;;;;;4.07;1.85;;;;;;;9.84;67.28;103220.88;5094765;28;20039;-32
2022/04/28 07:01:26;;;;;;;5.03;2.00;;;;;;;9.80;67.50;103241.94;5095205;28;20436;-31
2022/04/28 07:04:02;;;;;;;6.80;2.22;;;;;;;9.82;67.57;103237.00;5088963;28;20441;-31
2022/04/28 07:06:32;;;;;;;5.35;1.80;;;;;;;9.81;67.19;103232.50;5094845;28;20066;-26
2022/04/28 07:08:59;;;;;;;4.28;1.90;;;;;;;9.85;67.36;103244.88;5112621;28;20071;-26
2022/04/28 07:11:27;;;;;;;6.15;1.70;;;;;;;9.87;67.20;103242.72;5094429;28;20047;-28
2022/04/28 07:14:06;;;;;;;3.97;2.25;;;;;;;9.88;67.28;103243.56;5094622;28;20035;-28
2022/04/28 07:17:03;;;;;;;4.90;1.52;;;;;;;9.90;67.15;103250.63;5112084;28;20065;-29
2022/04/28 07:19:40;;;;;;;3.53;1.67;;;;;;;9.88;67.22;103252.78;5094692;28;20052;-30
2022/04/28 07:22:10;;;;;;;5.32;1.75;;;;;;;9.85;66.86;103258.84;5094722;28;20134;-26
2022/04/28 07:24:37;;;;;;;6.70;2.05;;;;;;;9.82;66.88;103267.66;5105229;28;20047;-27
2022/04/28 07:27:08;;;;;;;6.43;2.05;;;;;;;9.84;67.14;103267.44;5094279;28;20463;-28
2022/04/28 07:29:39;;;;;;;6.80;1.95;;;;;;;9.85;67.18;103269.97;5094291;28;20462;-26
2022/04/28 07:32:15;;;;;;;4.75;1.88;;;;;;;9.86;66.76;103280.06;5094348;28;20079;-28
2022/04/28 07:35:06;;;;;;;5.93;1.90;;;;;;;9.89;66.98;103284.31;5106726;28;20165;-27
2022/04/28 07:37:54;;;;;;;4.78;1.65;;;;;;;9.89;66.29;103282.38;5110495;28;20169;-28
2022/04/28 07:40:44;;;;;;;3.22;1.30;;;;;;;9.90;67.09;103277.66;5112592;28;20181;-31
2022/04/28 07:43:17;;;;;;;4.50;1.52;;;;;;;9.97;66.83;103282.06;5093945;28;20044;-27
2022/04/28 07:45:50;;;;;;;4.43;1.38;;;;;;;10.02;66.82;103281.34;5093435;28;20130;-29
2022/04/28 07:48:18;;;;;;;2.80;1.35;;;;;;;10.11;66.73;103287.44;5112261;28;20092;-26
2022/04/28 07:50:47;;;;;;;6.38;2.00;;;;;;;10.17;66.54;103283.72;5093609;28;20059;-27
2022/04/28 07:53:22;;;;;;;4.43;1.50;;;;;;;10.17;66.20;103287.34;5094106;28;20512;-28
2022/04/28 07:58:33;;;;;;;8.02;1.90;;;;;;;10.15;66.23;103288.69;5092458;28;20104;-27
2022/04/28 08:01:31;;;;;;;5.15;1.77;;;;;;;10.17;66.37;103284.56;5098441;28;20062;-26
2022/04/28 08:03:59;;;;;;;7.55;1.92;;;;;;;10.21;65.91;103293.31;5111917;28;20043;-29
2022/04/28 08:06:27;;;;;;;3.90;1.42;;;;;;;10.25;65.84;103292.63;5092980;28;20048;-26
2022/04/28 08:08:57;;;;;;;3.85;1.30;;;;;;;10.34;65.85;103295.94;5093713;28;20089;-28
2022/04/28 08:11:25;;;;;;;2.90;1.10;;;;;;;10.41;66.03;103296.66;5112041;28;20119;-27
2022/04/28 08:13:53;;;;;;;4.50;1.98;;;;;;;10.48;65.45;103297.41;5092702;28;20134;-26
2022/04/28 08:16:26;;;;;;;2.35;1.10;;;;;;;10.53;65.45;103294.75;5093280;28;20349;-27
2022/04/28 08:18:54;;;;;;;3.95;1.55;;;;;;;10.56;65.22;103299.03;5093142;28;20043;-27
2022/04/28 08:21:28;;;;;;;3.67;1.38;;;;;;;10.60;65.41;103303.00;5112110;28;20045;-28
2022/04/28 08:23:57;;;;;;;5.07;1.67;;;;;;;10.69;66.18;103298.78;5111930;28;20058;-26
2022/04/28 08:26:25;;;;;;;3.75;1.65;;;;;;;10.75;65.63;103297.00;5092536;28;20047;-27
2022/04/28 08:28:55;;;;;;;3.25;1.50;;;;;;;10.80;65.84;103306.31;5111367;28;20088;-27
2022/04/28 08:31:26;;;;;;;3.45;1.40;;;;;;;10.83;65.37;103308.63;5092099;28;20120;-26
2022/04/28 08:33:55;;;;;;;4.53;1.25;;;;;;;10.84;64.71;103312.28;5092255;28;20070;-27
2022/04/28 08:36:28;;;;;;;3.50;1.30;;;;;;;10.82;64.55;103318.09;5092950;28;20086;-27
2022/04/28 08:39:02;;;;;;;3.05;1.13;;;;;;;10.85;65.00;103314.84;5091940;28;20114;-27
2022/04/28 08:41:33;;;;;;;3.15;1.30;;;;;;;10.91;65.17;103316.69;5110933;28;20116;-28
2022/04/28 08:44:20;;;;;;;4.47;1.58;;;;;;;10.94;65.31;103310.59;5111493;28;20056;-26
2022/04/28 08:46:55;;;;;;;6.35;1.70;;;;;;;11.00;65.02;103315.22;5092600;28;20073;-28
2022/04/28 08:49:30;;;;;;;6.85;1.67;;;;;;;11.05;65.35;103318.13;5092444;28;20046;-28
2022/04/28 08:52:21;;;;;;;6.22;1.50;;;;;;;11.07;65.57;103329.06;5092588;28;20070;-27
2022/04/28 08:54:57;;;;;;;4.95;1.40;;;;;;;11.12;65.52;103314.38;5092158;28;20047;-27
2022/04/28 08:57:26;;;;;;;3.35;1.40;;;;;;;11.14;65.27;103313.03;5092956;28;20382;-27
2022/04/28 08:59:55;;;;;;;2.75;1.08;;;;;;;11.17;65.31;103315.34;5092191;28;20054;-26
2022/04/28 09:02:27;;;;;;;5.40;1.73;;;;;;;11.24;65.28;103321.66;5091952;28;20043;-29
2022/04/28 09:05:00;;;;;;;5.68;2.03;;;;;;;11.27;65.24;103321.16;5111274;28;20043;-26
2022/04/28 09:07:48;;;;;;;5.23;1.47;;;;;;;11.26;65.71;103325.06;5111341;28;20104;-27
2022/04/28 09:10:35;;;;;;;3.47;1.52;;;;;;;11.30;65.79;103312.31;5110161;28;20564;-27
2022/04/28 09:16:27;;;;;;;3.97;1.10;;;;;;;11.39;66.37;103313.63;5090711;28;20035;-27
2022/04/28 09:18:58;;;;;;;3.53;1.30;;;;;;;11.45;66.52;103319.31;5092713;28;20497;-28
2022/04/28 09:21:26;;;;;;;4.38;1.70;;;;;;;11.51;66.45;103310.81;5110882;28;20503;-28
2022/04/28 09:23:55;;;;;;;4.93;1.65;;;;;;;11.57;66.04;103307.06;5091713;28;20066;-28
2022/04/28 09:26:26;;;;;;;3.38;1.10;;;;;;;11.59;65.85;103304.81;5092193;28;20052;-28
2022/04/28 09:29:03;;;;;;;5.25;1.48;;;;;;;11.60;66.00;103309.31;5110735;28;20088;-28
2022/04/28 09:31:34;;;;;;;4.05;1.38;;;;;;;11.68;66.31;103313.69;5109874;28;20039;-28
2022/04/28 09:34:47;;;;;;;4.40;1.58;;;;;;;11.70;66.32;103314.31;5110119;28;20082;-28
2022/04/28 09:37:37;;;;;;;4.60;1.20;;;;;;;11.71;66.50;103308.47;5108718;28;20121;-23
2022/04/28 09:42:56;;;;;;;3.75;1.05;;;;;;;11.80;66.77;103302.50;5092426;28;20058;-23
2022/04/28 09:45:33;;;;;;;4.50;1.20;;;;;;;11.88;66.85;103302.97;5090896;28;20055;-22
2022/04/28 09:48:04;;;;;;;4.80;1.15;;;;;;;11.98;66.52;103306.00;5091842;28;20530;-23
2022/04/28 09:50:44;;;;;;;62.43;8.83;;;;;;;12.07;66.54;103303.63;5089760;28;20059;-22
2022/04/28 09:53:35;;;;;;;7.38;1.60;;;;;;;12.21;66.71;103299.41;5101874;28;20620;-27
2022/04/28 09:56:26;;;;;;;7.07;1.65;;;;;;;12.37;66.77;103304.22;5083350;28;20404;-26
2022/04/28 09:59:13;;;;;;;5.85;1.67;;;;;;;12.55;66.34;103305.94;5091499;28;20420;-28
2022/04/28 10:01:44;;;;;;;6.03;1.67;;;;;;;12.70;65.67;103300.59;5091731;28;20055;-27
2022/04/28 10:04:13;;;;;;;5.07;1.40;;;;;;;12.76;65.29;103298.75;5110002;28;20036;-28
2022/04/28 10:07:01;;;;;;;6.95;1.13;;;;;;;12.89;65.18;103295.59;5099164;28;20489;-30
2022/04/28 10:09:32;;;;;;;6.68;1.38;;;;;;;13.05;64.79;103294.72;5110092;28;20130;-29
2022/04/28 10:12:08;;;;;;;3.90;1.15;;;;;;;13.10;64.24;103296.78;5091438;28;20559;-27
2022/04/28 10:14:56;;;;;;;5.80;1.25;;;;;;;13.15;63.89;103308.09;5110554;28;20062;-29
2022/04/28 10:17:29;;;;;;;4.35;1.05;;;;;;;13.22;63.81;103308.75;5091992;28;20347;-28
2022/04/28 10:20:01;;;;;;;4.93;1.10;;;;;;;13.30;63.82;103310.28;5105365;28;20043;-27
2022/04/28 10:22:45;;;;;;;5.20;1.15;;;;;;;13.28;64.55;103309.69;5092090;28;20454;-27
2022/04/28 10:34:12;;;;;;;5.53;1.20;;;;;;;13.64;62.17;103308.22;5111397;28;20043;-29
2022/04/28 10:36:54;;;;;;;4.97;1.23;;;;;;;13.65;61.30;103318.34;5113247;28;20147;-30
2022/04/28 10:39:38;;;;;;;5.97;1.73;;;;;;;13.68;62.10;103313.06;5109069;28;20409;-28
2022/04/28 10:42:20;;;;;;;6.93;1.33;;;;;;;13.80;62.55;103322.19;5111772;28;20071;-28
2022/04/28 10:44:51;;;;;;;6.15;1.27;;;;;;;13.85;61.56;103315.81;5112192;28;20058;-28
2022/04/28 10:47:30;;;;;;;6.20;1.10;;;;;;;13.90;61.68;103320.63;5112378;28;20043;-28
2022/04/28 10:49:58;;;;;;;5.22;1.55;;;;;;;13.94;61.87;103319.84;5112674;28;20263;-28
2022/04/28 10:52:27;;;;;;;5.00;1.15;;;;;;;14.00;61.58;103320.75;5112984;28;20071;-28
2022/04/28 10:55:00;;;;;;;3.75;1.00;;;;;;;13.99;61.28;103322.69;5108208;28;20042;-29
2022/04/28 10:57:30;;;;;;;3.67;1.02;;;;;;;14.05;60.68;103318.00;5112541;28;20182;-26
2022/04/28 11:00:00;;;;;;;3.95;1.20;;;;;;;14.12;60.07;103315.84;5112401;28;20532;-29
2022/04/28 11:02:59;;;;;;;4.85;1.30;;;;;;;14.21;59.08;103319.03;5111689;28;20036;-27
2022/04/28 11:05:43;;;;;;;6.28;1.52;;;;;;;14.24;57.83;103321.31;5092153;28;20048;-30
2022/04/28 11:08:34;;;;;;;4.40;1.30;;;;;;;14.35;57.51;103323.97;5108381;28;20542;-27
2022/04/28 11:11:04;;;;;;;4.45;1.20;;;;;;;14.42;58.56;103330.25;5103238;28;20401;-27
2022/04/28 11:13:32;;;;;;;5.30;1.40;;;;;;;14.52;58.65;103323.06;5112316;28;20051;-28
2022/04/28 11:16:02;;;;;;;6.35;1.50;;;;;;;14.63;58.79;103322.88;5110873;28;20089;-27
2022/04/28 11:18:31;;;;;;;5.45;1.30;;;;;;;14.75;59.02;103314.28;5111651;28;20040;-28
2022/04/28 11:21:01;;;;;;;6.13;1.38;;;;;;;14.78;58.45;103319.38;5113432;28;20058;-28
2022/04/28 11:23:36;;;;;;;3.72;1.25;;;;;;;14.82;57.90;103320.50;5111129;28;20039;-28
2022/04/28 11:26:19;;;;;;;5.88;1.00;;;;;;;14.87;58.56;103314.94;5094993;28;20066;-28
2022/04/28 11:28:50;;;;;;;7.03;1.38;;;;;;;14.83;58.06;103311.81;5094264;28;20138;-29
2022/04/28 11:31:19;;;;;;;7.72;1.40;;;;;;;14.79;58.09;103318.22;5112981;28;20096;-27
2022/04/28 11:33:56;;;;;;;3.83;1.00;;;;;;;14.82;58.38;103321.34;5112164;28;20050;-27
2022/04/28 11:36:28;;;;;;;6.28;1.20;;;;;;;14.90;58.48;103316.38;5112451;28;20046;-31
2022/04/28 11:38:58;;;;;;;4.15;1.45;;;;;;;14.85;57.45;103314.34;5112861;28;20043;-26
2022/04/28 11:41:39;;;;;;;5.65;1.20;;;;;;;14.83;57.71;103317.44;5091050;28;20056;-26
2022/04/28 11:44:08;;;;;;;4.85;1.33;;;;;;;14.81;57.60;103314.03;5111699;28;20562;-28
2022/04/28 11:46:38;;;;;;;4.55;1.20;;;;;;;14.68;57.54;103310.84;5113063;28;20492;-27
2022/04/28 11:49:07;;;;;;;2.85;1.10;;;;;;;14.67;58.43;103318.41;5112482;28;20050;-30
2022/04/28 11:51:36;;;;;;;5.72;1.58;;;;;;;14.73;58.59;103308.06;5111815;28;20049;-28
2022/04/28 11:54:05;;;;;;;4.28;1.05;;;;;;;14.83;58.89;103305.34;5112505;28;20079;-27
2022/04/28 11:56:38;;;;;;;5.95;1.33;;;;;;;14.94;58.02;103311.91;5112486;28;20555;-28
2022/04/28 11:59:06;;;;;;;4.03;1.13;;;;;;;14.96;57.90;103309.69;5111813;28;20052;-29
2022/04/28 12:01:35;;;;;;;6.30;1.52;;;;;;;15.13;57.89;103321.63;5112394;28;20046;-29
2022/04/28 12:04:05;;;;;;;7.80;1.48;;;;;;;15.25;57.25;103322.25;5111623;28;20154;-27
2022/04/28 12:06:34;;;;;;;5.07;1.40;;;;;;;15.32;57.37;103322.03;5112651;28;20053;-28
2022/04/28 12:14:22;;;;;;;5.50;1.30;;;;;;;15.30;57.07;103324.25;5111932;28;20039;-27
2022/04/28 12:14:37;;;;;;;5.03;1.20;;;;;;;15.23;56.36;103318.88;5093716;28;20428;-29
2022/04/28 12:19:55;;;;;;;5.50;1.50;;;;;;;15.29;56.24;103320.59;5110927;28;20063;-27
2022/04/28 12:22:34;;;;;;;5.68;1.38;;;;;;;15.26;55.76;103321.13;5110160;28;20496;-28
2022/04/28 12:25:07;;;;;;;5.50;1.40;;;;;;;15.31;55.61;103320.34;5111906;28;20062;-30
2022/04/28 12:27:54;;;;;;;5.28;1.20;;;;;;;15.45;54.55;103315.91;5110321;28;20055;-30
2022/04/28 12:30:22;;;;;;;4.90;1.10;;;;;;;15.49;54.92;103317.91;5111729;28;20040;-29
2022/04/28 12:32:52;;;;;;;5.95;1.40;;;;;;;15.57;54.17;103312.94;5111271;28;20144;-29
2022/04/28 12:35:30;;;;;;;4.70;1.30;;;;;;;15.66;54.18;103314.09;5111747;28;20108;-33
2022/04/28 12:38:01;;;;;;;4.95;1.35;;;;;;;15.92;53.54;103310.28;5110562;28;20078;-30
2022/04/28 12:40:37;;;;;;;5.15;1.25;;;;;;;16.11;52.41;103305.84;5110492;28;20447;-27
2022/04/28 12:43:05;;;;;;;6.15;1.42;;;;;;;16.15;52.17;103311.75;5109901;28;20267;-29